Time;durP1;ratioP1;P1;durP2;ratioP2;P2;SDS_P1;SDS_P2;PMS_P1;PMS_P2;Temp;Humidity;BMP_temperature;BMP_pressure;BME280_temperature;BME280_humidity;BME280_pressure;Samples;Min_cycle;Max_cycle;Signal;HPM_P1;HPM_P2
2022/04/26 03:36:10;;;;;;;0.10;0.10;;;8.80;99.90;;;8.62;100.00;100633.97;4973187;28;20216;-65
2022/04/26 03:38:43;;;;;;;0.45;0.45;;;8.80;99.90;;;8.64;100.00;100640.16;4957094;28;20235;-65
2022/04/26 03:41:11;;;;;;;0.20;0.20;;;8.80;99.90;;;8.68;100.00;100646.38;4955600;28;20199;-65
2022/04/26 03:43:39;;;;;;;0.20;0.20;;;8.80;99.90;;;8.67;100.00;100641.97;4978966;28;20207;-64
2022/04/26 03:46:13;;;;;;;0.20;0.20;;;8.80;99.90;;;8.68;100.00;100635.81;4994759;28;20208;-65
2022/04/26 03:48:50;;;;;;;0.10;0.10;;;8.80;99.90;;;8.63;100.00;100645.38;4958115;28;20227;-64
2022/04/26 03:51:18;;;;;;;0.20;0.20;;;8.80;99.90;;;8.61;100.00;100640.09;4972823;28;20208;-65
2022/04/26 03:53:47;;;;;;;0.20;0.20;;;8.80;99.90;;;8.57;100.00;100642.63;4996695;28;20220;-65
2022/04/26 03:56:15;;;;;;;0.10;0.10;;;8.80;99.90;;;8.53;100.00;100664.50;4961583;28;20212;-65
2022/04/26 03:58:42;;;;;;;0.10;0.10;;;8.80;99.90;;;8.60;100.00;100691.03;4979663;28;20246;-65
2022/04/26 04:01:11;;;;;;;0.20;0.20;;;8.80;99.90;;;8.60;100.00;100696.31;4973853;28;20208;-64
2022/04/26 04:03:39;;;;;;;0.20;0.20;;;8.80;99.90;;;8.58;100.00;100687.47;4985376;28;20204;-65
2022/04/26 04:06:07;;;;;;;0.20;0.20;;;8.80;99.90;;;8.51;100.00;100682.94;4982936;28;20558;-65
2022/04/26 04:08:35;;;;;;;0.20;0.20;;;8.80;99.90;;;8.51;100.00;100682.94;4967740;28;20243;-64
2022/04/26 04:11:03;;;;;;;0.20;0.20;;;8.70;99.90;;;8.47;100.00;100667.03;4965366;28;20212;-65
2022/04/26 04:13:30;;;;;;;0.20;0.20;;;8.70;99.90;;;8.48;100.00;100658.25;4970512;28;20211;-64
2022/04/26 04:15:58;;;;;;;0.30;0.30;;;8.70;99.90;;;8.51;100.00;100659.22;4982568;28;20691;-64
2022/04/26 04:21:13;;;;;;;0.25;0.25;;;8.70;99.90;;;8.51;100.00;100659.22;4990988;28;20223;-65
2022/04/26 04:23:41;;;;;;;0.10;0.10;;;8.70;99.90;;;8.56;100.00;100659.31;4958268;28;20208;-65
2022/04/26 04:26:09;;;;;;;0.35;0.35;;;8.70;99.90;;;8.56;100.00;100648.75;4956928;28;20660;-65
2022/04/26 04:28:37;;;;;;;0.10;0.10;;;8.70;99.90;;;8.58;100.00;100652.31;4992125;28;20235;-65
2022/04/26 04:31:05;;;;;;;0.10;0.10;;;8.70;99.90;;;8.56;100.00;100638.22;4980071;28;20719;-65
2022/04/26 04:33:33;;;;;;;0.20;0.20;;;8.70;99.90;;;8.59;100.00;100640.91;4958117;28;20783;-64
2022/04/26 04:36:01;;;;;;;0.10;0.10;;;8.70;99.90;;;8.59;100.00;100636.53;4981787;28;20578;-65
2022/04/26 04:38:28;;;;;;;0.20;0.20;;;8.70;99.90;;;8.63;100.00;100630.47;4953533;28;20249;-65
2022/04/26 04:40:57;;;;;;;0.20;0.20;;;8.80;99.90;;;8.64;100.00;100632.25;4969659;28;20239;-65
2022/04/26 04:43:25;;;;;;;0.20;0.20;;;8.80;99.90;;;8.68;100.00;100620.00;4951866;28;20207;-65
2022/04/26 04:45:53;;;;;;;0.20;0.20;;;8.80;99.90;;;8.71;100.00;100613.91;5000636;28;20723;-65
2022/04/26 04:48:21;;;;;;;0.20;0.20;;;8.80;99.90;;;8.75;100.00;100615.75;4964866;28;20240;-64
2022/04/26 04:50:49;;;;;;;0.10;0.10;;;8.80;99.90;;;8.75;100.00;100606.09;4980776;28;20211;-65
2022/04/26 04:53:21;;;;;;;0.20;0.20;;;8.80;99.90;;;8.76;100.00;100613.13;4981878;28;20200;-65
2022/04/26 04:55:49;;;;;;;0.10;0.10;;;8.80;99.90;;;8.74;100.00;100608.69;4999330;28;20204;-65
2022/04/26 04:58:17;;;;;;;0.20;0.20;;;8.80;99.90;;;8.75;100.00;100606.09;4981343;28;20227;-65
2022/04/26 05:00:44;;;;;;;0.20;0.20;;;8.90;99.90;;;8.77;100.00;100614.03;4968380;28;20224;-65
2022/04/26 05:03:13;;;;;;;0.20;0.20;;;8.80;99.90;;;8.77;100.00;100607.00;4973890;28;20227;-64
2022/04/26 05:05:41;;;;;;;0.10;0.10;;;8.80;99.90;;;8.81;100.00;100605.31;4982163;28;20208;-65
2022/04/26 05:08:10;;;;;;;0.20;0.20;;;8.90;99.90;;;8.85;100.00;100599.22;4997266;28;20227;-65
2022/04/26 05:10:40;;;;;;;0.10;0.10;;;8.90;99.90;;;8.89;100.00;100603.69;4970001;28;20208;-65
2022/04/26 05:13:08;;;;;;;0.57;0.57;;;8.90;99.90;;;8.85;100.00;100594.84;4983601;28;20223;-65
2022/04/26 05:15:38;;;;;;;0.20;0.20;;;9.00;99.90;;;8.90;100.00;100592.28;4970222;28;20197;-65
2022/04/26 05:18:06;;;;;;;0.20;0.20;;;9.00;99.90;;;8.90;100.00;100597.56;4942820;28;20247;-65
2022/04/26 05:20:34;;;;;;;0.10;0.10;;;9.10;99.90;;;8.90;100.00;100598.47;5025021;28;20211;-64
2022/04/26 05:25:48;;;;;;;0.10;0.10;;;9.00;99.90;;;8.83;100.00;100616.78;4979125;28;20215;-66
2022/04/26 05:28:16;;;;;;;0.20;0.20;;;9.00;99.90;;;8.76;100.00;100623.69;4975719;28;20577;-65
2022/04/26 05:30:54;;;;;;;0.10;0.10;;;9.00;99.90;;;8.82;100.00;100636.97;4993772;28;20207;-65
2022/04/26 05:33:22;;;;;;;0.20;0.20;;;9.00;99.90;;;8.83;100.00;100629.97;4994724;28;20200;-65
2022/04/26 05:35:50;;;;;;;0.10;0.10;;;9.00;99.90;;;8.86;100.00;100627.38;5001847;28;20220;-65
2022/04/26 05:38:18;;;;;;;0.20;0.20;;;9.00;99.90;;;8.94;100.00;100641.59;4974900;28;20247;-65
2022/04/26 05:40:48;;;;;;;0.10;0.10;;;9.00;99.90;;;8.96;100.00;100660.97;4974462;28;20212;-65
2022/04/26 05:43:16;;;;;;;0.20;0.20;;;9.10;99.90;;;8.97;100.00;100654.84;4958962;28;20231;-65
2022/04/26 05:45:44;;;;;;;0.20;0.20;;;9.10;99.90;;;9.10;100.00;100648.97;4987630;28;20219;-65
2022/04/26 05:48:13;;;;;;;0.10;0.10;;;9.20;99.90;;;9.16;100.00;100651.72;4995273;28;20235;-65
2022/04/26 05:50:41;;;;;;;0.10;0.10;;;9.20;99.90;;;9.27;100.00;100662.47;4979293;28;20214;-65
2022/04/26 05:53:09;;;;;;;0.28;0.28;;;9.30;99.90;;;9.21;100.00;100670.28;4994719;28;20226;-65
2022/04/26 05:55:38;;;;;;;0.20;0.20;;;9.40;99.90;;;9.15;100.00;100686.88;4996036;28;20203;-65
2022/04/26 05:58:06;;;;;;;0.20;0.20;;;9.40;99.90;;;9.22;100.00;100696.69;4960220;28;20562;-65
2022/04/26 06:00:34;;;;;;;0.20;0.20;;;9.40;99.90;;;9.22;100.00;100699.34;4973074;28;20209;-65
2022/04/26 06:03:02;;;;;;;0.22;0.22;;;9.40;99.90;;;9.23;100.00;100700.22;4988250;28;20234;-65
2022/04/26 06:05:30;;;;;;;0.20;0.20;;;9.40;99.90;;;9.27;100.00;100716.13;4965771;28;20209;-65
2022/04/26 06:07:59;;;;;;;0.20;0.20;;;9.40;99.90;;;9.30;100.00;100720.59;4991317;28;20224;-65
2022/04/26 06:10:28;;;;;;;0.30;0.30;;;9.50;99.90;;;9.29;100.00;100722.34;5007291;28;20567;-65
2022/04/26 06:12:56;;;;;;;0.10;0.10;;;9.50;99.90;;;9.36;100.00;100722.44;4998894;28;20203;-65
2022/04/26 06:15:24;;;;;;;0.17;0.17;;;9.50;99.90;;;9.41;100.00;100721.66;4978760;28;20230;-65
2022/04/26 06:17:52;;;;;;;0.20;0.20;;;9.50;99.90;;;9.42;100.00;100707.63;4993948;28;20214;-65
2022/04/26 06:20:22;;;;;;;0.20;0.20;;;9.50;99.90;;;9.41;100.00;100692.63;4952243;28;20211;-65
2022/04/26 06:22:51;;;;;;;0.20;0.20;;;9.60;99.90;;;9.50;100.00;100702.47;4972552;28;20220;-65
2022/04/26 06:25:19;;;;;;;0.20;0.20;;;9.60;99.90;;;9.64;100.00;100714.16;4977804;28;20657;-65
2022/04/26 06:27:47;;;;;;;0.20;0.20;;;9.70;99.90;;;9.68;100.00;100691.31;4968456;28;20204;-65
2022/04/26 06:30:18;;;;;;;0.20;0.20;;;9.70;99.90;;;9.74;100.00;100684.41;5004048;28;20219;-66
2022/04/26 06:32:46;;;;;;;0.20;0.20;;;9.80;99.90;;;9.78;100.00;100670.38;4967936;28;20203;-65
2022/04/26 06:35:14;;;;;;;0.10;0.10;;;9.90;99.90;;;9.89;100.00;100652.94;4974665;28;20212;-65
2022/04/26 06:37:42;;;;;;;0.20;0.20;;;9.90;99.90;;;10.04;100.00;100661.97;4974176;28;20204;-65
2022/04/26 06:40:10;;;;;;;0.20;0.20;;;10.00;99.90;;;10.15;100.00;100665.66;4968543;28;20208;-65
2022/04/26 06:42:38;;;;;;;0.10;0.10;;;10.00;99.90;;;10.18;100.00;100652.47;4960912;28;20208;-65
2022/04/26 06:45:06;;;;;;;0.10;0.10;;;10.10;99.90;;;10.31;100.00;100646.53;4962431;28;20204;-65
2022/04/26 06:47:34;;;;;;;0.20;0.20;;;10.20;99.90;;;10.25;100.00;100631.47;4965844;28;20674;-65
2022/04/26 06:50:03;;;;;;;0.20;0.20;;;10.30;99.90;;;10.40;100.00;100636.09;4965900;28;20212;-65
2022/04/26 06:52:32;;;;;;;0.10;0.10;;;10.30;99.90;;;10.60;100.00;100627.53;4961287;28;20275;-65
2022/04/26 06:54:59;;;;;;;0.30;0.30;;;10.50;99.90;;;10.81;100.00;100633.94;4987637;28;20200;-65
2022/04/26 06:57:27;;;;;;;0.13;0.13;;;10.60;99.90;;;10.89;100.00;100612.88;5002882;28;20195;-65
2022/04/26 06:59:55;;;;;;;0.10;0.10;;;10.70;99.90;;;10.83;100.00;100581.06;4977849;28;20243;-65
2022/04/26 07:02:23;;;;;;;0.20;0.20;;;10.90;99.90;;;10.87;100.00;100589.03;4982721;28;20722;-65
2022/04/26 07:04:51;;;;;;;0.10;0.10;;;10.90;99.90;;;11.17;100.00;100582.25;4984221;28;20319;-65
2022/04/26 07:07:20;;;;;;;0.15;0.15;;;11.10;99.90;;;11.29;100.00;100562.94;4982353;28;20215;-65
2022/04/26 07:09:48;;;;;;;0.10;0.10;;;11.20;99.90;;;11.16;100.00;100527.56;4967811;28;20239;-65
2022/04/26 07:12:16;;;;;;;0.10;0.10;;;11.20;99.90;;;11.25;100.00;100542.63;4971941;28;20216;-65
2022/04/26 07:14:43;;;;;;;0.17;0.17;;;11.30;99.90;;;11.29;100.00;100531.19;4984158;28;20234;-65
2022/04/26 07:17:11;;;;;;;0.10;0.10;;;11.30;99.90;;;11.55;100.00;100562.28;4986673;28;20216;-65
2022/04/26 07:19:39;;;;;;;0.20;0.20;;;11.50;99.90;;;11.53;100.00;100550.78;4955564;28;20233;-65
2022/04/26 07:22:27;;;;;;;0.10;0.10;;;11.50;99.90;;;11.69;100.00;100557.06;4980801;28;20224;-65
2022/04/26 07:24:55;;;;;;;0.10;0.10;;;11.50;99.90;;;11.87;100.00;100521.91;4968271;28;20227;-66
2022/04/26 07:27:23;;;;;;;0.20;0.20;;;11.70;99.90;;;11.96;100.00;100507.81;4957106;28;20207;-66
2022/04/26 07:29:52;;;;;;;0.10;0.10;;;11.90;99.90;;;11.92;100.00;100512.22;4982934;28;20255;-66
2022/04/26 07:34:20;;;;;;;0.10;0.10;;;12.00;99.90;;;11.84;100.00;100487.44;4983529;28;20204;-66
2022/04/26 07:35:10;;;;;;;0.17;0.17;;;12.00;99.90;;;11.61;100.00;100475.78;4991656;28;20231;-65
2022/04/26 07:37:39;;;;;;;0.10;0.10;;;11.90;99.90;;;11.58;100.00;100479.31;4968272;28;20215;-66
2022/04/26 07:40:09;;;;;;;0.20;0.20;;;11.90;99.90;;;11.49;100.00;100469.53;4949523;28;20224;-66
2022/04/26 07:42:37;;;;;;;0.10;0.10;;;11.90;99.90;;;11.52;100.00;100473.97;4967654;28;20216;-65
2022/04/26 07:45:07;;;;;;;2.05;0.50;;;11.80;99.90;;;11.52;100.00;100458.97;4972748;28;20214;-66
2022/04/26 07:47:34;;;;;;;0.10;0.10;;;11.90;99.90;;;11.30;100.00;100443.81;4985298;28;20208;-66
2022/04/26 07:50:04;;;;;;;0.10;0.10;;;11.80;99.90;;;11.28;100.00;100450.88;4981085;28;20216;-65
2022/04/26 07:52:32;;;;;;;0.10;0.10;;;11.70;99.90;;;11.18;100.00;100433.16;4991468;28;20200;-65
2022/04/26 07:55:00;;;;;;;0.10;0.10;;;11.60;99.90;;;11.14;100.00;100426.97;4970910;28;20208;-65
2022/04/26 07:57:28;;;;;;;0.10;0.10;;;11.40;99.90;;;11.15;100.00;100425.19;4967345;28;20204;-65
2022/04/26 07:59:56;;;;;;;0.10;0.10;;;11.40;99.90;;;11.17;100.00;100431.38;4975312;28;20236;-65
2022/04/26 08:02:24;;;;;;;0.30;0.30;;;11.40;99.90;;;11.19;100.00;100425.22;4960369;28;20200;-66
2022/04/26 08:04:54;;;;;;;0.20;0.20;;;11.40;99.90;;;11.16;100.00;100429.63;4966606;28;20208;-65
2022/04/26 08:07:22;;;;;;;0.73;0.73;;;11.50;99.90;;;11.16;100.00;100430.50;4948405;28;20205;-65
2022/04/26 08:09:50;;;;;;;0.20;0.20;;;11.50;99.90;;;11.15;100.00;100420.78;4949703;28;20248;-65
2022/04/26 08:12:17;;;;;;;0.10;0.10;;;11.50;99.90;;;11.19;100.00;100442.88;4967950;28;20224;-65
2022/04/26 08:14:45;;;;;;;0.10;0.10;;;11.40;99.90;;;11.39;100.00;100456.22;4973065;28;20768;-65
2022/04/26 08:17:15;;;;;;;0.10;0.10;;;11.50;99.90;;;11.52;100.00;100464.25;4983514;28;20205;-65
2022/04/26 08:19:43;;;;;;;0.20;0.20;;;11.60;99.90;;;11.69;100.00;100476.72;4977884;28;20228;-66
2022/04/26 08:22:11;;;;;;;0.20;0.20;;;11.70;99.90;;;11.92;100.00;100468.94;4948583;28;20220;-66
2022/04/26 08:27:26;;;;;;;0.10;0.10;;;12.00;99.90;;;11.61;100.00;100414.88;4967461;28;20224;-65
2022/04/26 08:29:56;;;;;;;0.13;0.13;;;11.90;99.90;;;11.43;100.00;100399.78;4950128;28;20693;-65
2022/04/26 08:32:28;;;;;;;0.10;0.10;;;11.80;99.90;;;11.65;100.00;100422.81;4966785;28;20216;-65
2022/04/26 08:34:59;;;;;;;0.10;0.10;;;11.80;99.90;;;11.75;100.00;100424.66;4970824;28;20212;-65
2022/04/26 08:37:27;;;;;;;0.10;0.10;;;11.80;99.90;;;12.27;100.00;100477.00;4954783;28;20205;-65
2022/04/26 08:39:56;;;;;;;0.10;0.10;;;12.00;99.90;;;12.70;100.00;100484.16;4950041;28;20233;-66
2022/04/26 08:42:44;;;;;;;0.10;0.10;;;12.30;99.90;;;12.93;100.00;100462.94;4995780;28;20200;-65
2022/04/26 08:45:15;;;;;;;0.10;0.10;;;12.60;99.90;;;13.44;100.00;100466.50;4967705;28;20209;-66
2022/04/26 08:53:22;;;;;;;0.10;0.10;;;12.90;99.90;;;13.10;100.00;100386.84;4965835;28;20212;-65
2022/04/26 08:55:53;;;;;;;0.10;0.10;;;13.20;99.90;;;13.33;100.00;100381.50;4984375;28;20205;-65
2022/04/26 08:58:22;;;;;;;0.10;0.10;;;13.30;99.90;;;14.40;100.00;100464.34;4947125;28;20228;-65
2022/04/26 09:01:13;;;;;;;0.10;0.10;;;13.70;99.90;;;14.84;100.00;100409.03;4951292;28;20581;-65
2022/04/26 09:03:59;;;;;;;0.25;0.25;;;14.40;99.90;;;14.63;100.00;100357.75;4965607;28;20200;-65
2022/04/26 09:06:30;;;;;;;0.10;0.10;;;14.60;99.90;;;13.62;100.00;100258.28;4952187;28;20220;-65
2022/04/26 09:09:21;;;;;;;0.10;0.10;;;14.30;99.90;;;13.38;100.00;100276.13;4970786;28;20235;-65
2022/04/26 09:11:50;;;;;;;0.10;0.10;;;14.10;99.90;;;12.96;100.00;100260.31;4971330;28;20215;-64
2022/04/26 09:14:34;;;;;;;0.10;0.10;;;13.70;99.90;;;12.77;100.00;100275.41;4948963;28;20220;-65
2022/04/26 09:17:11;;;;;;;0.20;0.20;;;13.40;99.90;;;12.54;100.00;100285.19;4956149;28;20197;-65
2022/04/26 09:19:53;;;;;;;0.10;0.10;;;13.20;99.90;;;12.38;100.00;100292.28;4962734;28;20609;-65
2022/04/26 09:22:26;;;;;;;0.10;0.10;;;13.10;99.90;;;11.92;100.00;100283.44;4970336;28;20205;-65
2022/04/26 09:25:05;;;;;;;0.10;0.10;;;12.60;99.90;;;11.83;100.00;100292.25;4977544;28;20219;-64
2022/04/26 09:27:39;;;;;;;0.10;0.10;;;12.50;99.90;;;11.68;100.00;100323.94;4969956;28;20211;-64
2022/04/26 09:30:12;;;;;;;0.10;0.10;;;12.40;99.90;;;11.41;100.00;100332.69;4968080;28;20256;-65
2022/04/26 09:32:49;;;;;;;0.10;0.10;;;12.20;99.90;;;11.23;100.00;100344.06;4969547;28;20204;-65
2022/04/26 09:35:31;;;;;;;0.20;0.20;;;11.90;99.90;;;10.78;100.00;100294.44;4965102;28;20213;-64
2022/04/26 09:37:59;;;;;;;0.10;0.10;;;11.50;99.90;;;10.69;100.00;100262.66;4972985;28;20208;-64
2022/04/26 09:40:35;;;;;;;0.10;0.10;;;11.30;99.90;;;10.64;100.00;100261.75;4981786;28;20217;-64
2022/04/26 09:43:15;;;;;;;0.10;0.10;;;11.00;99.90;;;10.66;100.00;100258.22;4981845;28;20224;-65
2022/04/26 09:45:59;;;;;;;0.10;0.10;;;11.00;99.90;;;10.83;100.00;100292.69;4984961;28;20212;-64
2022/04/26 09:48:39;;;;;;;0.10;0.10;;;11.10;99.90;;;11.00;100.00;100351.91;4967498;28;20220;-65
2022/04/26 09:51:23;;;;;;;0.10;0.10;;;11.20;99.90;;;10.67;100.00;100331.41;4998690;28;20213;-65
2022/04/26 09:54:04;;;;;;;0.15;0.15;;;11.10;99.90;;;10.84;100.00;100376.47;4957330;28;20212;-65
2022/04/26 09:56:50;;;;;;;0.20;0.20;;;11.10;99.90;;;10.93;100.00;100405.66;4970260;28;20678;-65
2022/04/26 09:59:30;;;;;;;0.20;0.20;;;11.20;99.90;;;10.92;100.00;100411.81;4982276;28;20227;-65
2022/04/26 10:01:59;;;;;;;0.10;0.10;;;11.30;99.90;;;11.24;100.00;100449.09;4970176;28;20205;-65
2022/04/26 10:04:31;;;;;;;0.10;0.10;;;11.40;99.90;;;11.42;100.00;100467.72;4987330;28;20219;-65
2022/04/26 10:07:06;;;;;;;0.10;0.10;;;11.60;99.90;;;11.33;100.00;100449.13;4969996;28;20212;-64
2022/04/26 10:09:34;;;;;;;0.10;0.10;;;11.60;99.90;;;11.55;100.00;100485.47;4976763;28;20713;-64
2022/04/26 10:12:04;;;;;;;0.10;0.10;;;11.70;99.90;;;11.52;100.00;100480.16;4984829;28;20569;-65
2022/04/26 10:14:32;;;;;;;0.10;0.10;;;11.70;99.90;;;11.64;100.00;100478.44;4964477;28;20212;-65
2022/04/26 10:17:00;;;;;;;0.10;0.10;;;11.80;99.90;;;11.88;100.00;100504.25;4969882;28;20197;-65
2022/04/26 10:19:41;;;;;;;0.10;0.10;;;11.90;99.90;;;11.76;100.00;100481.19;4950272;28;20267;-65
2022/04/26 10:22:11;;;;;;;0.10;0.10;;;12.00;99.90;;;11.62;100.00;100478.44;4947603;28;20208;-65
2022/04/26 10:24:40;;;;;;;0.10;0.10;;;11.90;99.90;;;11.66;100.00;100482.88;4953419;28;20201;-64
2022/04/26 10:27:23;;;;;;;0.10;0.10;;;11.90;99.90;;;11.47;100.00;100467.75;4937093;28;20208;-64
2022/04/26 10:29:51;;;;;;;0.20;0.20;;;11.80;99.90;;;11.16;100.00;100451.69;4950897;28;20251;-64
2022/04/26 10:32:38;;;;;;;0.10;0.10;;;11.60;99.90;;;11.30;100.00;100480.88;4964899;28;20212;-65
2022/04/26 10:35:25;;;;;;;0.15;0.15;;;11.50;99.90;;;11.16;100.00;100467.56;4954354;28;20205;-65
2022/04/26 10:38:15;;;;;;;0.10;0.10;;;11.50;99.90;;;11.19;100.00;100458.75;5000647;28;20842;-64
2022/04/26 10:41:04;;;;;;;0.10;0.10;;;11.50;99.90;;;11.63;100.00;100512.00;4985130;28;20208;-64
2022/04/26 10:43:33;;;;;;;0.10;0.10;;;11.50;99.90;;;11.77;100.00;100513.03;4968279;28;20204;-64
2022/04/26 10:46:13;;;;;;;0.10;0.10;;;11.70;99.90;;;12.06;100.00;100536.13;4952805;28;20571;-64
2022/04/26 10:48:42;;;;;;;0.10;0.10;;;12.00;99.90;;;11.74;100.00;100493.53;4950503;28;20263;-64
2022/04/26 10:51:35;;;;;;;0.10;0.10;;;11.90;99.90;;;11.99;100.00;100518.44;4961289;28;20307;-64
2022/04/26 10:54:04;;;;;;;0.10;0.10;;;12.00;99.90;;;12.02;100.00;100510.50;4965657;28;20666;-62
2022/04/26 10:56:33;;;;;;;0.10;0.10;;;12.10;99.90;;;12.21;100.00;100530.91;4965838;28;20205;-64
2022/04/26 10:59:01;;;;;;;0.10;0.10;;;12.10;99.90;;;12.04;100.00;100487.53;4969220;28;20236;-64
2022/04/26 11:01:29;;;;;;;0.10;0.10;;;12.10;99.90;;;12.00;100.00;100451.28;4971568;28;20213;-64
2022/04/26 11:03:58;;;;;;;0.10;0.10;;;12.10;99.90;;;12.14;100.00;100439.84;4968379;28;20212;-64
2022/04/26 11:06:39;;;;;;;0.10;0.10;;;12.20;99.90;;;11.93;100.00;100397.38;4953087;28;20216;-64
2022/04/26 11:09:14;;;;;;;0.10;0.10;;;12.10;99.90;;;12.28;100.00;100441.66;4983345;28;20243;-65
2022/04/26 11:11:54;;;;;;;0.10;0.10;;;12.20;99.90;;;12.24;100.00;100401.00;4973383;28;20688;-64
2022/04/26 11:14:24;;;;;;;0.10;0.10;;;12.40;99.90;;;12.26;100.00;100401.00;4941944;28;20204;-65
2022/04/26 11:16:59;;;;;;;0.10;0.10;;;12.40;99.90;;;12.22;100.00;100402.75;4985907;28;20212;-67
2022/04/26 11:19:38;;;;;;;0.10;0.10;;;12.40;99.90;;;11.91;100.00;100358.50;4999039;28;20216;-66
2022/04/26 11:22:09;;;;;;;0.10;0.10;;;12.30;99.90;;;11.81;100.00;100355.84;4941401;28;20208;-65
2022/04/26 11:30:11;;;;;;;0.10;0.10;;;12.20;99.90;;;12.18;100.00;100395.69;4986139;28;20664;-65
2022/04/26 11:32:44;;;;;;;0.10;0.10;;;12.40;99.90;;;12.05;100.00;100360.31;4965141;28;20208;-65
2022/04/26 11:35:16;;;;;;;0.10;0.10;;;12.40;99.90;;;12.05;100.00;100375.31;4944068;28;20208;-65
2022/04/26 11:37:47;;;;;;;0.10;0.10;;;12.40;99.90;;;12.07;100.00;100392.13;4971630;28;20204;-65
2022/04/26 11:40:36;;;;;;;0.10;0.10;;;12.40;99.90;;;11.81;100.00;100349.66;4967063;28;20211;-65
2022/04/26 11:43:13;;;;;;;0.10;0.10;;;12.20;99.90;;;12.24;100.00;100397.44;4962564;28;20209;-65
2022/04/26 11:45:45;;;;;;;0.10;0.10;;;12.30;99.90;;;12.08;100.00;100352.38;4965743;28;20208;-65
2022/04/26 11:48:25;;;;;;;0.10;0.10;;;12.30;99.90;;;12.06;100.00;100340.88;4968912;28;20220;-65
2022/04/26 11:50:56;;;;;;;0.10;0.10;;;12.30;99.90;;;12.26;100.00;100372.72;4991252;28;20228;-65
2022/04/26 11:53:28;;;;;;;1.55;0.65;;;12.30;99.90;;;12.38;100.00;100359.47;4943585;28;20204;-65
2022/04/26 11:56:01;;;;;;;0.10;0.10;;;12.50;99.90;;;12.61;100.00;100374.50;4982161;28;20309;-65
2022/04/26 11:58:36;;;;;;;0.10;0.10;;;12.60;99.90;;;12.29;97.36;100290.50;4967948;28;20223;-65
2022/04/26 12:01:11;;;;;;;0.10;0.10;;;12.50;99.90;;;12.44;99.90;100332.06;4962076;28;20205;-65
2022/04/26 12:03:49;;;;;;;0.10;0.10;;;12.50;99.90;;;12.64;97.71;100332.94;4976511;28;20208;-65
2022/04/26 12:06:28;;;;;;;0.10;0.10;;;12.70;99.90;;;12.69;98.15;100332.91;4993722;28;20212;-65
2022/04/26 12:08:59;;;;;;;0.10;0.10;;;12.80;99.90;;;12.67;95.94;100305.50;4970631;28;20239;-65
2022/04/26 12:11:37;;;;;;;0.10;0.10;;;12.80;99.90;;;12.74;94.13;100281.63;4958594;28;20236;-65
2022/04/26 12:14:16;;;;;;;0.10;0.10;;;12.90;99.90;;;12.74;95.81;100294.88;4987551;28;20217;-65
2022/04/26 12:16:49;;;;;;;0.10;0.10;;;13.00;99.90;;;12.86;93.05;100286.00;4973734;28;20204;-65
2022/04/26 12:19:17;;;;;;;0.10;0.10;;;13.10;99.90;;;12.90;92.75;100278.91;4969888;28;20224;-65
2022/04/26 12:21:54;;;;;;;0.13;0.13;;;13.10;99.90;;;13.09;91.89;100294.81;4968901;28;20204;-65
2022/04/26 12:24:29;;;;;;;0.10;0.10;;;13.20;99.90;;;12.83;90.22;100222.31;4956442;28;20232;-65
2022/04/26 12:27:02;;;;;;;0.10;0.10;;;13.20;99.90;;;13.31;95.53;100326.63;4980091;28;20208;-65
2022/04/26 12:29:41;;;;;;;0.10;0.10;;;13.30;99.90;;;13.51;94.84;100340.72;4985424;28;20228;-66
2022/04/26 12:32:12;;;;;;;0.10;0.10;;;13.50;99.90;;;13.82;92.29;100341.44;4968317;28;20592;-66
2022/04/26 12:34:50;;;;;;;0.10;0.10;;;13.70;99.90;;;14.04;94.66;100359.03;4941684;28;20196;-65
2022/04/26 12:37:31;;;;;;;0.08;0.08;;;14.00;99.90;;;14.47;90.87;100345.47;4979631;28;20204;-66
2022/04/26 12:40:08;;;;;;;0.10;0.10;;;14.30;99.90;;;14.66;88.95;100312.50;4960778;28;20232;-65
2022/04/26 12:42:41;;;;;;;0.10;0.10;;;14.50;99.90;;;14.38;84.57;100194.75;4963403;28;20204;-65
2022/04/26 12:45:21;;;;;;;0.10;0.10;;;14.80;99.90;;;14.38;87.50;100216.03;4963230;28;20205;-66
2022/04/26 12:51:21;;;;;;;0.13;0.13;;;14.80;99.90;;;13.80;98.13;100281.22;4975918;28;20205;-65
2022/04/26 12:54:11;;;;;;;0.10;0.10;;;14.50;99.90;;;13.81;99.08;100315.75;4970048;28;20236;-66
2022/04/26 12:56:40;;;;;;;0.77;0.77;;;14.30;99.90;;;12.74;100.00;100225.00;4968070;28;20212;-66
2022/04/26 12:59:18;;;;;;;0.10;0.10;;;13.70;99.90;;;12.34;100.00;100245.44;4965885;28;20231;-65
2022/04/26 13:01:46;;;;;;;0.10;0.10;;;13.20;99.90;;;12.06;100.00;100255.16;4981664;28;20205;-64
2022/04/26 13:04:14;;;;;;;0.10;0.10;;;12.50;99.90;;;12.15;100.00;100314.38;4971845;28;20213;-65
2022/04/26 13:06:44;;;;;;;0.10;0.10;;;12.50;99.90;;;11.95;100.00;100328.50;4971932;28;20212;-64
2022/04/26 13:09:32;;;;;;;0.10;0.10;;;12.50;99.90;;;11.51;100.00;100294.75;4976029;28;20251;-65
2022/04/26 13:12:00;;;;;;;0.10;0.10;;;12.10;99.90;;;11.30;100.00;100269.09;4979021;28;20240;-65
2022/04/26 13:14:28;;;;;;;0.15;0.15;;;12.00;99.90;;;11.41;100.00;100291.19;4967107;28;20216;-64
2022/04/26 13:17:12;;;;;;;0.10;0.10;;;11.90;99.90;;;11.22;100.00;100299.94;4978774;28;20204;-65
2022/04/26 13:19:39;;;;;;;0.10;0.10;;;11.80;99.90;;;11.24;100.00;100348.50;4969554;28;20229;-65
2022/04/26 13:22:07;;;;;;;0.10;0.10;;;11.70;99.90;;;11.18;100.00;100367.00;4955182;28;20220;-64
2022/04/26 13:24:35;;;;;;;0.10;0.10;;;11.60;99.90;;;11.11;100.00;100374.00;4975222;28;20231;-65
2022/04/26 13:27:06;;;;;;;0.10;0.10;;;11.60;99.90;;;11.33;100.00;100413.84;4975485;28;20211;-65
2022/04/26 13:29:34;;;;;;;0.10;0.10;;;11.50;99.90;;;11.22;100.00;100414.66;4956178;28;20232;-65
2022/04/26 13:32:04;;;;;;;0.10;0.10;;;11.50;99.90;;;10.89;100.00;100387.97;4950067;28;20232;-64
2022/04/26 13:34:32;;;;;;;0.10;0.10;;;11.40;99.90;;;11.09;100.00;100435.75;4942101;28;20217;-65
2022/04/26 13:37:07;;;;;;;0.20;0.20;;;11.40;99.90;;;11.34;100.00;100468.56;4982564;28;20219;-65
2022/04/26 13:39:38;;;;;;;0.20;0.20;;;11.50;99.90;;;11.11;100.00;100449.88;4975938;28;20229;-65
2022/04/26 13:42:07;;;;;;;0.10;0.10;;;11.50;99.90;;;10.96;100.00;100448.00;4969731;28;20204;-64
2022/04/26 13:44:35;;;;;;;0.10;0.10;;;11.40;99.90;;;11.08;100.00;100460.44;4990254;28;20216;-65
2022/04/26 13:47:06;;;;;;;0.10;0.10;;;11.40;99.90;;;11.37;100.00;100497.72;4954161;28;20208;-65
2022/04/26 13:49:39;;;;;;;0.10;0.10;;;11.50;99.90;;;11.35;100.00;100480.94;4924450;28;20251;-64
2022/04/26 13:52:09;;;;;;;0.10;0.10;;;11.60;99.90;;;11.45;100.00;100482.75;4970378;28;20718;-65
2022/04/26 13:54:38;;;;;;;0.10;0.10;;;11.80;99.90;;;11.36;100.00;100464.16;4955265;28;20216;-65
2022/04/26 13:57:06;;;;;;;0.15;0.15;;;11.80;99.90;;;11.47;100.00;100467.75;4947051;28;20216;-65
2022/04/26 13:59:34;;;;;;;0.10;0.10;;;11.90;99.90;;;11.69;100.00;100469.66;4963726;28;20232;-65
2022/04/26 14:02:07;;;;;;;0.10;0.10;;;12.00;99.90;;;11.84;100.00;100479.50;4936853;28;20218;-64
2022/04/26 14:04:35;;;;;;;0.10;0.10;;;12.00;99.90;;;12.04;100.00;100490.19;4957116;28;20216;-65
2022/04/26 14:07:04;;;;;;;0.10;0.10;;;12.20;99.90;;;12.31;100.00;100502.66;4962056;28;20213;-65
2022/04/26 14:09:33;;;;;;;0.10;0.10;;;12.40;99.90;;;12.30;100.00;100477.91;4970420;28;20228;-64
2022/04/26 14:12:02;;;;;;;0.10;0.10;;;12.40;99.90;;;12.43;100.00;100463.78;4953021;28;20220;-65
2022/04/26 14:22:52;;;;;;;0.10;0.10;;;13.10;99.90;;;12.80;100.00;100402.78;4966078;28;20223;-64
2022/04/26 14:25:20;;;;;;;0.10;0.10;;;12.90;99.90;;;12.60;100.00;100375.38;4949167;28;20243;-65
2022/04/26 14:27:51;;;;;;;0.20;0.20;;;12.80;99.90;;;12.49;100.00;100346.19;4924693;28;20673;-65
2022/04/26 14:30:31;;;;;;;0.10;0.10;;;12.80;99.90;;;12.17;100.00;100293.16;4938267;28;20208;-64
2022/04/26 14:33:14;;;;;;;0.10;0.10;;;12.50;99.90;;;12.16;100.00;100289.63;4948730;28;20232;-66
2022/04/26 14:35:45;;;;;;;0.10;0.10;;;12.50;99.90;;;12.22;100.00;100295.81;4968604;28;22127;-68